Time;durP1;ratioP1;P1;durP2;ratioP2;P2;SDS_P1;SDS_P2;PMS_P1;PMS_P2;Temp;Humidity;BMP_temperature;BMP_pressure;BME280_temperature;BME280_humidity;BME280_pressure;Samples;Min_cycle;Max_cycle;Signal;HPM_P1;HPM_P2
2021/08/18 00:01:23;;;;;;;50.33;31.63;;;23.80;66.00;;;;;;5054952;28;20023;-77
2021/08/18 00:03:49;;;;;;;47.05;31.20;;;23.80;66.00;;;;;;5055002;28;20502;-77
2021/08/18 00:06:15;;;;;;;45.83;30.92;;;23.80;66.00;;;;;;5054760;28;20021;-77
2021/08/18 00:08:41;;;;;;;54.97;31.92;;;23.80;66.00;;;;;;5054996;28;20463;-77
2021/08/18 00:11:07;;;;;;;45.83;30.13;;;23.80;65.90;;;;;;5054928;28;20028;-76
2021/08/18 00:13:34;;;;;;;46.83;30.63;;;23.70;65.80;;;;;;5054770;28;20052;-78
2021/08/18 00:16:00;;;;;;;47.88;32.90;;;23.80;65.80;;;;;;5054518;28;20096;-78
2021/08/18 00:18:26;;;;;;;53.60;33.80;;;23.70;65.80;;;;;;5054682;28;20020;-78
2021/08/18 00:20:52;;;;;;;49.53;31.77;;;23.70;65.70;;;;;;5054958;28;20033;-78
2021/08/18 00:23:18;;;;;;;53.28;34.10;;;23.70;65.70;;;;;;5071025;28;20040;-78
2021/08/18 00:25:44;;;;;;;59.17;35.42;;;23.70;65.70;;;;;;5065418;28;20036;-78
2021/08/18 00:28:10;;;;;;;53.55;35.20;;;23.70;65.80;;;;;;5056801;28;20025;-78
2021/08/18 00:30:36;;;;;;;57.55;36.28;;;23.60;65.90;;;;;;5055027;28;20106;-78
2021/08/18 00:33:01;;;;;;;56.78;36.40;;;23.60;65.90;;;;;;5053625;28;20021;-78
2021/08/18 00:35:27;;;;;;;62.17;36.97;;;23.60;66.60;;;;;;5054444;28;20028;-78
2021/08/18 00:37:54;;;;;;;62.72;37.17;;;23.60;66.00;;;;;;5054407;28;20382;-78
2021/08/18 00:40:20;;;;;;;52.55;36.08;;;23.60;66.00;;;;;;5054461;28;20021;-78
2021/08/18 00:42:47;;;;;;;52.25;35.92;;;23.50;66.00;;;;;;5054290;28;20626;-78
2021/08/18 00:45:15;;;;;;;56.58;36.25;;;23.50;66.10;;;;;;5053239;28;20474;-78
2021/08/18 00:47:42;;;;;;;56.47;35.83;;;23.50;66.20;;;;;;5054376;28;20021;-78
2021/08/18 00:50:09;;;;;;;67.78;37.08;;;23.50;66.40;;;;;;5054421;28;20100;-78
2021/08/18 00:52:35;;;;;;;57.63;34.08;;;23.40;66.30;;;;;;5054352;28;20053;-77
2021/08/18 00:55:00;;;;;;;52.03;34.65;;;23.50;66.30;;;;;;5054151;28;20066;-77
2021/08/18 00:57:26;;;;;;;58.08;34.20;;;23.50;66.20;;;;;;5054008;28;20061;-77
2021/08/18 00:59:52;;;;;;;53.13;34.40;;;23.40;66.20;;;;;;5052953;28;20499;-77
2021/08/18 01:02:19;;;;;;;53.88;35.22;;;23.40;66.10;;;;;;5053864;28;20071;-78
2021/08/18 01:04:46;;;;;;;58.28;35.92;;;23.40;66.30;;;;;;5054026;28;20455;-78
2021/08/18 01:07:13;;;;;;;58.53;35.35;;;23.30;66.40;;;;;;5053973;28;20411;-77
2021/08/18 01:09:38;;;;;;;56.55;34.00;;;23.30;66.50;;;;;;5053836;28;20060;-78
2021/08/18 01:12:04;;;;;;;53.63;35.25;;;23.30;66.60;;;;;;5053583;28;20053;-77
2021/08/18 01:14:30;;;;;;;55.03;34.40;;;23.30;66.60;;;;;;5053839;28;20444;-77
2021/08/18 01:16:56;;;;;;;48.05;32.58;;;23.30;66.70;;;;;;5053800;28;20116;-77
2021/08/18 01:19:22;;;;;;;49.28;33.75;;;23.20;66.60;;;;;;5052530;28;20040;-77
2021/08/18 01:21:49;;;;;;;52.78;34.63;;;23.20;66.70;;;;;;5053578;28;20025;-77
2021/08/18 01:24:18;;;;;;;74.97;52.20;;;23.20;66.80;;;;;;5053712;28;20021;-78
2021/08/18 01:26:44;;;;;;;56.35;36.90;;;23.20;66.70;;;;;;5053515;28;20433;-78
2021/08/18 01:29:10;;;;;;;54.65;36.13;;;23.20;66.60;;;;;;5053556;28;20478;-76
2021/08/18 01:31:36;;;;;;;56.90;36.22;;;23.20;66.60;;;;;;5053267;28;20024;-78
2021/08/18 01:34:04;;;;;;;53.42;36.15;;;23.20;66.60;;;;;;5053590;28;20028;-77
2021/08/18 01:36:31;;;;;;;54.67;34.00;;;23.20;66.70;;;;;;5053439;28;20025;-77
2021/08/18 01:39:05;;;;;;;52.53;34.08;;;23.20;66.80;;;;;;5053231;28;20017;-77
2021/08/18 01:41:30;;;;;;;48.50;34.35;;;23.10;66.90;;;;;;5053226;28;20028;-77
2021/08/18 01:43:56;;;;;;;52.38;36.47;;;23.10;67.10;;;;;;5052922;28;20033;-77
2021/08/18 01:46:22;;;;;;;52.38;33.63;;;23.10;67.20;;;;;;5053047;28;20021;-77
2021/08/18 01:48:48;;;;;;;52.22;33.40;;;23.10;67.50;;;;;;5053183;28;20032;-78
2021/08/18 01:51:13;;;;;;;52.50;34.38;;;23.10;67.60;;;;;;5053127;28;20021;-77
2021/08/18 01:53:44;;;;;;;61.80;33.50;;;23.00;67.80;;;;;;5053064;28;20033;-78
2021/08/18 01:56:16;;;;;;;55.38;36.42;;;23.00;68.00;;;;;;5053057;28;20090;-78
2021/08/18 01:58:43;;;;;;;52.65;35.95;;;23.00;68.00;;;;;;5053064;28;20163;-77
2021/08/18 02:01:11;;;;;;;56.78;36.55;;;22.90;68.00;;;;;;5052961;28;20033;-77
2021/08/18 02:03:37;;;;;;;57.22;38.03;;;22.90;68.20;;;;;;5052758;28;20464;-78
2021/08/18 02:06:03;;;;;;;58.13;40.45;;;22.80;68.30;;;;;;5051654;28;20049;-78
2021/08/18 02:08:29;;;;;;;61.70;42.53;;;22.70;68.40;;;;;;5052742;28;20105;-78
2021/08/18 02:10:54;;;;;;;59.70;40.17;;;22.70;68.50;;;;;;5052642;28;20099;-78
2021/08/18 02:13:20;;;;;;;59.72;40.03;;;22.60;68.60;;;;;;5052721;28;20472;-79
2021/08/18 02:15:46;;;;;;;59.60;42.90;;;22.50;68.80;;;;;;5052839;28;20024;-78
2021/08/18 02:18:15;;;;;;;62.90;42.17;;;22.40;69.00;;;;;;5052733;28;20029;-78
2021/08/18 02:20:42;;;;;;;66.57;44.00;;;22.40;69.10;;;;;;5052593;28;20032;-78
2021/08/18 02:23:08;;;;;;;74.93;41.53;;;22.30;69.30;;;;;;5052597;28;20097;-78
2021/08/18 02:25:34;;;;;;;69.72;44.08;;;22.30;69.50;;;;;;5052433;28;20455;-78
2021/08/18 02:28:00;;;;;;;66.38;44.90;;;22.20;69.60;;;;;;5052465;28;20464;-78
2021/08/18 02:30:28;;;;;;;67.85;42.95;;;22.10;69.70;;;;;;5052365;28;20028;-78
2021/08/18 02:32:55;;;;;;;56.42;41.50;;;22.10;69.80;;;;;;5052563;28;20024;-78
2021/08/18 02:35:21;;;;;;;61.40;40.28;;;22.10;70.00;;;;;;5052209;28;20036;-77
2021/08/18 02:37:49;;;;;;;54.80;38.03;;;22.10;70.10;;;;;;5052184;28;20433;-76
2021/08/18 02:40:20;;;;;;;54.35;37.63;;;22.10;70.20;;;;;;5058589;28;20021;-76
2021/08/18 02:42:51;;;;;;;52.50;37.57;;;22.10;70.10;;;;;;5055494;28;20023;-76
2021/08/18 02:45:18;;;;;;;46.97;31.70;;;22.20;70.30;;;;;;5053607;28;20071;-77
2021/08/18 02:47:44;;;;;;;46.08;30.58;;;22.20;70.30;;;;;;5051793;28;20262;-77
2021/08/18 02:50:13;;;;;;;42.60;29.98;;;22.20;70.40;;;;;;5051940;28;20460;-76
2021/08/18 02:52:38;;;;;;;42.70;30.00;;;22.30;70.60;;;;;;5051916;28;20043;-77
2021/08/18 02:55:05;;;;;;;41.97;28.45;;;22.40;70.60;;;;;;5051537;28;20104;-77
2021/08/18 02:57:30;;;;;;;46.63;28.88;;;22.30;70.70;;;;;;5051872;28;20495;-77
2021/08/18 02:59:56;;;;;;;41.65;28.80;;;22.30;70.80;;;;;;5051983;28;20035;-78
2021/08/18 03:02:23;;;;;;;46.30;26.98;;;22.30;71.00;;;;;;5051738;28;20033;-78
2021/08/18 03:04:49;;;;;;;46.35;27.25;;;22.30;71.30;;;;;;5052024;28;20017;-77
2021/08/18 03:07:15;;;;;;;47.67;26.17;;;22.30;71.60;;;;;;5051890;28;20025;-77
2021/08/18 03:09:41;;;;;;;37.55;24.83;;;22.30;71.90;;;;;;5051830;28;20021;-77
2021/08/18 03:12:07;;;;;;;48.03;24.85;;;22.40;72.10;;;;;;5051730;28;20029;-77
2021/08/18 03:14:32;;;;;;;43.00;23.92;;;22.40;72.30;;;;;;5051904;28;20029;-77
2021/08/18 03:16:58;;;;;;;32.03;22.67;;;22.50;72.50;;;;;;5051762;28;20036;-77
2021/08/18 03:19:24;;;;;;;51.58;22.35;;;22.50;72.60;;;;;;5051826;28;20506;-77
2021/08/18 03:21:50;;;;;;;38.20;21.73;;;22.60;72.70;;;;;;5051628;28;20028;-77
2021/08/18 03:24:16;;;;;;;39.55;20.08;;;22.60;72.70;;;;;;5051607;28;20489;-77
2021/08/18 03:26:42;;;;;;;34.70;20.92;;;22.70;72.80;;;;;;5051850;28;20029;-76
2021/08/18 03:29:08;;;;;;;32.70;19.95;;;22.80;72.70;;;;;;5051692;28;20856;-77
2021/08/18 03:31:33;;;;;;;29.83;19.30;;;22.90;72.90;;;;;;5051563;28;20025;-77
2021/08/18 03:33:59;;;;;;;29.67;18.92;;;23.30;72.90;;;;;;5051579;28;20025;-77
2021/08/18 03:36:25;;;;;;;31.77;18.52;;;23.80;72.00;;;;;;5051423;28;20029;-77
2021/08/18 03:38:51;;;;;;;31.80;18.38;;;24.40;70.80;;;;;;5051634;28;20029;-78
2021/08/18 03:41:16;;;;;;;23.60;16.58;;;25.00;69.40;;;;;;5051297;28;20483;-78
2021/08/18 03:43:42;;;;;;;27.67;16.55;;;25.60;68.10;;;;;;5051322;28;20040;-78
2021/08/18 03:46:09;;;;;;;28.50;16.65;;;26.10;66.80;;;;;;5051089;28;20029;-78
2021/08/18 03:48:34;;;;;;;23.88;16.15;;;26.60;65.50;;;;;;5051509;28;20032;-78
2021/08/18 03:51:00;;;;;;;24.65;14.15;;;26.90;64.50;;;;;;5051573;28;20040;-79
2021/08/18 03:53:26;;;;;;;23.45;13.30;;;26.90;64.00;;;;;;5051467;28;20021;-78
2021/08/18 03:55:52;;;;;;;21.40;12.85;;;27.10;64.20;;;;;;5051273;28;20483;-78
2021/08/18 03:58:17;;;;;;;26.85;12.15;;;27.10;63.70;;;;;;5051287;28;20100;-77
2021/08/18 04:00:43;;;;;;;20.17;11.88;;;27.00;63.70;;;;;;5051246;28;20047;-79
2021/08/18 04:03:09;;;;;;;16.60;11.57;;;27.10;63.90;;;;;;5051077;28;20040;-79
2021/08/18 04:05:35;;;;;;;17.42;11.27;;;27.40;63.80;;;;;;5051088;28;20021;-78
2021/08/18 04:08:01;;;;;;;16.80;10.88;;;28.10;63.20;;;;;;5053247;28;20052;-79
2021/08/18 04:10:28;;;;;;;20.35;10.38;;;28.90;61.90;;;;;;5054952;28;20487;-78
2021/08/18 04:12:55;;;;;;;24.30;11.35;;;29.80;60.40;;;;;;5054965;28;20029;-79
2021/08/18 04:15:27;;;;;;;19.50;9.30;;;30.60;58.80;;;;;;5054959;28;20032;-79
2021/08/18 04:17:53;;;;;;;15.23;9.57;;;31.50;57.10;;;;;;5055396;28;20064;-77
2021/08/18 04:20:19;;;;;;;18.02;9.38;;;32.30;55.90;;;;;;5054902;28;20060;-79
2021/08/18 04:22:46;;;;;;;11.55;8.63;;;33.00;54.50;;;;;;5054249;28;20025;-78
2021/08/18 04:25:14;;;;;;;20.35;8.00;;;33.70;53.30;;;;;;5054770;28;20028;-79
2021/08/18 04:27:40;;;;;;;16.88;7.10;;;34.30;52.20;;;;;;5054183;28;20531;-79
2021/08/18 04:30:08;;;;;;;15.63;7.28;;;35.00;51.40;;;;;;5054551;28;20033;-79
2021/08/18 04:32:34;;;;;;;14.85;7.28;;;35.60;50.20;;;;;;5054268;28;20017;-72
2021/08/18 04:35:00;;;;;;;10.65;7.55;;;36.20;49.30;;;;;;5054019;28;20057;-72
2021/08/18 04:37:26;;;;;;;20.48;6.70;;;36.70;48.40;;;;;;5053972;28;20379;-72
2021/08/18 04:39:52;;;;;;;11.93;6.05;;;37.20;47.70;;;;;;5053915;28;20122;-72
2021/08/18 04:42:18;;;;;;;12.57;6.35;;;37.70;46.80;;;;;;5054001;28;20492;-72
2021/08/18 04:44:44;;;;;;;14.48;6.13;;;38.10;46.10;;;;;;5054360;28;20025;-73
2021/08/18 04:47:09;;;;;;;14.30;6.15;;;38.40;45.40;;;;;;5053750;28;20029;-73
2021/08/18 04:49:35;;;;;;;11.93;5.85;;;38.90;44.80;;;;;;5053929;28;20468;-74
2021/08/18 04:52:01;;;;;;;8.73;5.70;;;39.30;44.30;;;;;;5053690;28;20032;-72
2021/08/18 04:54:26;;;;;;;10.88;6.45;;;39.60;43.70;;;;;;5053421;28;20021;-73
2021/08/18 04:56:52;;;;;;;12.27;5.85;;;39.90;43.10;;;;;;5053417;28;20080;-71
2021/08/18 04:59:18;;;;;;;14.55;6.30;;;40.30;42.60;;;;;;5053552;28;20059;-72
2021/08/18 05:01:43;;;;;;;9.15;5.65;;;40.50;42.10;;;;;;5053219;28;20075;-72
2021/08/18 05:04:09;;;;;;;17.58;6.03;;;40.70;41.70;;;;;;5053291;28;20041;-73
2021/08/18 05:06:35;;;;;;;12.13;5.82;;;41.00;41.50;;;;;;5053299;28;20383;-73
2021/08/18 05:09:01;;;;;;;11.43;6.80;;;41.20;41.10;;;;;;5053354;28;20499;-72
2021/08/18 05:11:26;;;;;;;14.63;6.03;;;41.40;40.80;;;;;;5053296;28;20041;-73
2021/08/18 05:13:52;;;;;;;15.23;6.75;;;41.70;40.60;;;;;;5053160;28;20112;-74
2021/08/18 05:16:18;;;;;;;13.45;6.13;;;42.00;40.30;;;;;;5052958;28;20090;-74
2021/08/18 05:18:43;;;;;;;13.98;6.78;;;42.30;39.90;;;;;;5052542;28;20036;-73
2021/08/18 05:21:09;;;;;;;13.63;6.72;;;42.60;39.50;;;;;;5053112;28;20352;-73
2021/08/18 05:23:35;;;;;;;17.80;6.18;;;42.80;39.20;;;;;;5052951;28;20025;-73
2021/08/18 05:26:01;;;;;;;11.05;5.93;;;43.10;39.00;;;;;;5052838;28;20086;-73
2021/08/18 05:28:26;;;;;;;8.05;5.85;;;43.40;38.80;;;;;;5052801;28;20021;-73
2021/08/18 05:30:52;;;;;;;11.57;6.20;;;43.60;38.50;;;;;;5052619;28;20405;-74
2021/08/18 05:33:18;;;;;;;15.23;6.50;;;43.80;38.10;;;;;;5052526;28;20479;-73
2021/08/18 05:35:44;;;;;;;16.65;7.20;;;43.90;38.00;;;;;;5051767;28;20090;-72
2021/08/18 05:38:10;;;;;;;12.07;6.32;;;44.00;37.80;;;;;;5051808;28;20032;-73
2021/08/18 05:40:35;;;;;;;11.93;6.80;;;44.20;37.70;;;;;;5049747;28;20387;-73
2021/08/18 05:43:01;;;;;;;12.77;7.00;;;44.40;37.50;;;;;;5050854;28;20025;-72
2021/08/18 05:45:27;;;;;;;12.15;6.93;;;44.60;37.30;;;;;;5051186;28;20114;-73
2021/08/18 05:47:52;;;;;;;10.82;6.68;;;44.70;37.00;;;;;;5050430;28;20043;-73
2021/08/18 05:50:18;;;;;;;12.85;6.63;;;44.80;36.90;;;;;;5051535;28;20043;-73
2021/08/18 05:52:44;;;;;;;18.38;7.57;;;44.80;36.90;;;;;;5052014;28;20028;-73
2021/08/18 05:55:10;;;;;;;11.35;6.93;;;45.00;36.70;;;;;;5051965;28;20048;-72
2021/08/18 05:57:37;;;;;;;22.98;6.95;;;45.20;36.60;;;;;;5051165;28;20053;-72
2021/08/18 06:00:05;;;;;;;15.27;7.18;;;45.30;36.40;;;;;;5050788;28;20120;-73
2021/08/18 06:02:30;;;;;;;14.32;7.97;;;45.50;36.30;;;;;;5050329;28;20028;-73
2021/08/18 06:04:56;;;;;;;14.07;7.75;;;45.60;36.10;;;;;;5050683;28;20643;-72
2021/08/18 06:07:22;;;;;;;11.30;6.68;;;45.70;36.80;;;;;;5051145;28;20025;-72
2021/08/18 06:09:47;;;;;;;11.63;7.63;;;45.90;36.00;;;;;;5051144;28;20075;-73
2021/08/18 06:12:13;;;;;;;12.75;7.35;;;46.00;35.80;;;;;;5048209;28;20204;-71
2021/08/18 06:14:39;;;;;;;10.98;6.45;;;46.20;35.80;;;;;;5049466;28;20116;-73
2021/08/18 06:17:05;;;;;;;12.40;6.60;;;46.20;35.60;;;;;;5050197;28;20124;-73
2021/08/18 06:19:31;;;;;;;14.65;9.52;;;46.30;35.60;;;;;;5050158;28;20059;-73
2021/08/18 06:21:59;;;;;;;11.05;7.82;;;46.40;35.50;;;;;;5050642;28;20551;-72
2021/08/18 06:24:41;;;;;;;11.82;6.85;;;46.40;35.40;;;;;;5050255;28;20518;-72
2021/08/18 06:27:09;;;;;;;17.10;7.30;;;46.40;35.20;;;;;;5049627;28;20106;-74
2021/08/18 06:29:35;;;;;;;15.90;7.55;;;46.20;35.20;;;;;;5047086;28;20017;-73
2021/08/18 06:32:03;;;;;;;16.83;7.93;;;46.20;35.40;;;;;;5050434;28;20114;-73
2021/08/18 06:34:29;;;;;;;13.75;9.02;;;46.10;35.50;;;;;;5050288;28;20029;-73
2021/08/18 06:36:54;;;;;;;16.75;7.32;;;46.10;35.60;;;;;;5047382;28;20013;-74
2021/08/18 06:39:20;;;;;;;12.63;6.88;;;46.00;35.40;;;;;;5050300;28;20090;-73
2021/08/18 06:41:46;;;;;;;11.85;7.68;;;46.00;35.50;;;;;;5050273;28;20021;-73
2021/08/18 06:44:11;;;;;;;11.15;7.40;;;45.90;35.50;;;;;;5049868;28;19970;-76
2021/08/18 06:46:37;;;;;;;13.88;7.93;;;45.90;35.60;;;;;;5050334;28;20021;-74
2021/08/18 06:49:03;;;;;;;12.50;8.00;;;45.90;35.60;;;;;;5051211;28;20025;-77
2021/08/18 06:51:29;;;;;;;15.50;7.20;;;45.90;35.60;;;;;;5050931;28;20033;-77
2021/08/18 06:53:55;;;;;;;17.20;8.90;;;45.90;35.60;;;;;;5051338;28;20383;-77
2021/08/18 06:56:20;;;;;;;13.57;8.48;;;45.80;35.40;;;;;;5051120;28;20059;-78
2021/08/18 06:58:46;;;;;;;17.50;8.10;;;45.50;35.40;;;;;;5050704;28;20035;-78
2021/08/18 07:01:12;;;;;;;15.48;7.72;;;45.30;35.70;;;;;;5051233;28;20049;-78
2021/08/18 07:03:37;;;;;;;13.75;8.18;;;45.20;35.90;;;;;;5050882;28;20074;-77
2021/08/18 07:06:03;;;;;;;15.18;8.50;;;45.10;35.90;;;;;;5049780;28;20078;-77
2021/08/18 07:08:29;;;;;;;12.40;8.23;;;44.70;36.00;;;;;;5049390;28;20074;-79
2021/08/18 07:10:54;;;;;;;19.50;8.18;;;44.50;36.90;;;;;;5049403;28;20009;-77
2021/08/18 07:13:20;;;;;;;18.48;8.30;;;44.40;36.30;;;;;;5049797;28;20017;-81
2021/08/18 07:15:46;;;;;;;13.65;9.80;;;44.40;36.50;;;;;;5049728;28;20549;-82
2021/08/18 07:18:12;;;;;;;14.45;10.65;;;44.40;37.30;;;;;;5049695;28;20017;-81
2021/08/18 07:20:38;;;;;;;20.95;8.75;;;44.30;36.60;;;;;;5049558;28;20731;-82
2021/08/18 07:23:04;;;;;;;12.35;8.73;;;44.10;37.40;;;;;;5049349;28;20499;-81
2021/08/18 07:25:30;;;;;;;14.65;9.10;;;44.00;36.80;;;;;;5049752;28;20025;-80
2021/08/18 07:27:55;;;;;;;18.90;8.63;;;43.90;37.00;;;;;;5050088;28;20020;-80
2021/08/18 07:30:21;;;;;;;10.68;8.77;;;43.80;37.20;;;;;;5049702;28;20116;-80
2021/08/18 07:32:47;;;;;;;14.27;8.95;;;43.70;37.20;;;;;;5049437;28;20025;-80
2021/08/18 07:35:14;;;;;;;11.25;8.93;;;43.50;37.20;;;;;;5049312;28;20134;-81
2021/08/18 07:37:40;;;;;;;17.65;9.38;;;43.20;37.10;;;;;;5049694;28;20105;-81
2021/08/18 07:40:06;;;;;;;16.83;9.40;;;42.90;37.50;;;;;;5049873;28;20104;-83
2021/08/18 07:42:32;;;;;;;13.63;9.63;;;42.80;37.80;;;;;;5052787;28;20075;-81
2021/08/18 07:44:58;;;;;;;17.88;9.65;;;42.60;37.70;;;;;;5053726;28;20025;-83
2021/08/18 07:47:24;;;;;;;15.15;8.80;;;42.50;37.90;;;;;;5053432;28;20088;-79
2021/08/18 07:49:50;;;;;;;13.13;8.82;;;42.40;38.30;;;;;;5053476;28;20086;-80
2021/08/18 07:52:16;;;;;;;11.10;8.55;;;42.30;38.50;;;;;;5052871;28;20471;-79
2021/08/18 07:54:42;;;;;;;21.35;9.02;;;42.20;38.60;;;;;;5053465;28;20480;-78
2021/08/18 07:57:08;;;;;;;14.00;9.07;;;42.10;38.70;;;;;;5053311;28;20088;-78
2021/08/18 07:59:34;;;;;;;15.23;10.60;;;42.00;38.50;;;;;;5052676;28;20033;-81
2021/08/18 08:01:59;;;;;;;27.42;9.98;;;41.80;38.80;;;;;;5052405;28;20031;-85
2021/08/18 08:04:26;;;;;;;19.13;9.13;;;41.50;38.90;;;;;;5052802;28;20021;-78
2021/08/18 08:06:52;;;;;;;18.05;10.35;;;41.30;39.20;;;;;;5053179;28;20017;-83
2021/08/18 08:09:18;;;;;;;19.02;10.43;;;41.10;39.30;;;;;;5052226;28;20058;-80
2021/08/18 08:11:44;;;;;;;15.95;9.50;;;40.90;39.50;;;;;;5052957;28;20021;-74
2021/08/18 08:14:10;;;;;;;15.00;9.60;;;40.60;39.60;;;;;;5052338;28;20032;-73
2021/08/18 08:16:36;;;;;;;21.05;9.40;;;40.20;39.90;;;;;;5054257;28;20029;-75
2021/08/18 08:19:02;;;;;;;17.60;9.63;;;39.90;40.50;;;;;;5054028;28;20025;-76
2021/08/18 08:21:28;;;;;;;18.25;9.82;;;39.60;40.70;;;;;;5053846;28;20483;-74
2021/08/18 08:23:54;;;;;;;17.38;9.30;;;39.30;41.20;;;;;;5054004;28;20025;-77
2021/08/18 08:26:20;;;;;;;20.42;10.82;;;39.00;41.50;;;;;;5053862;28;20017;-75
2021/08/18 08:28:45;;;;;;;13.13;9.10;;;38.90;41.90;;;;;;5053947;28;20039;-75
2021/08/18 08:31:11;;;;;;;17.70;10.07;;;38.80;42.30;;;;;;5054309;28;20065;-77
2021/08/18 08:33:37;;;;;;;15.95;9.55;;;38.60;42.40;;;;;;5053480;28;20243;-75
2021/08/18 08:36:03;;;;;;;17.27;9.35;;;38.50;42.70;;;;;;5052843;28;20365;-76
2021/08/18 08:38:29;;;;;;;13.60;9.85;;;38.50;43.00;;;;;;5052536;28;20033;-76
2021/08/18 08:40:55;;;;;;;16.77;11.75;;;38.40;43.00;;;;;;5052394;28;20039;-74
2021/08/18 08:43:23;;;;;;;15.32;9.68;;;38.40;43.00;;;;;;5052675;28;20049;-76
2021/08/18 08:45:49;;;;;;;16.98;8.80;;;38.30;43.30;;;;;;5052686;28;20455;-76
2021/08/18 08:48:16;;;;;;;16.35;9.77;;;38.30;43.20;;;;;;5051999;28;20092;-74
2021/08/18 08:50:44;;;;;;;15.40;8.93;;;38.20;43.30;;;;;;5049547;28;20450;-75
2021/08/18 08:53:10;;;;;;;15.15;8.80;;;38.20;43.40;;;;;;5051535;28;20106;-74
2021/08/18 08:55:36;;;;;;;20.10;11.40;;;38.10;43.40;;;;;;5052131;28;20056;-75
2021/08/18 08:58:01;;;;;;;20.60;9.52;;;38.10;43.40;;;;;;5051903;28;20100;-74
2021/08/18 09:00:27;;;;;;;13.88;9.05;;;38.00;43.40;;;;;;5049426;28;20094;-74
2021/08/18 09:03:09;;;;;;;18.70;8.82;;;38.00;43.50;;;;;;5052036;28;20028;-81
2021/08/18 09:05:36;;;;;;;13.40;8.70;;;38.00;43.30;;;;;;5050993;28;20021;-81
2021/08/18 09:08:02;;;;;;;13.95;9.20;;;37.90;43.50;;;;;;5052004;28;20024;-79
2021/08/18 09:10:28;;;;;;;14.82;9.57;;;37.90;43.70;;;;;;5049569;28;20028;-83
2021/08/18 09:13:15;;;;;;;14.45;9.27;;;37.90;43.90;;;;;;5052385;28;20021;-82
2021/08/18 09:15:43;;;;;;;14.50;9.00;;;37.90;44.10;;;;;;5051570;28;20021;-81
2021/08/18 09:18:10;;;;;;;14.50;9.35;;;37.80;44.10;;;;;;5048508;28;20102;-82
2021/08/18 09:20:41;;;;;;;19.42;9.68;;;37.70;44.10;;;;;;5051858;28;20021;-82
2021/08/18 09:23:11;;;;;;;22.42;9.05;;;37.70;44.10;;;;;;5051723;28;20379;-81
2021/08/18 09:25:41;;;;;;;13.32;8.68;;;37.70;44.00;;;;;;5053104;28;20075;-81
2021/08/18 09:28:06;;;;;;;13.55;9.00;;;37.60;43.90;;;;;;5052205;28;20025;-81
2021/08/18 09:30:35;;;;;;;13.95;8.77;;;37.60;44.00;;;;;;5053196;28;20107;-81
2021/08/18 09:33:16;;;;;;;16.27;9.27;;;37.60;44.10;;;;;;5053454;28;20533;-81
2021/08/18 09:35:43;;;;;;;16.02;10.40;;;37.50;44.00;;;;;;5051483;28;20332;-80
2021/08/18 09:38:10;;;;;;;19.13;9.00;;;37.40;44.30;;;;;;5052938;28;20036;-79
2021/08/18 09:40:38;;;;;;;20.27;9.40;;;37.40;44.40;;;;;;5052702;28;20427;-81
2021/08/18 09:43:16;;;;;;;17.55;8.98;;;37.40;44.50;;;;;;5052182;28;20075;-80
2021/08/18 09:45:47;;;;;;;14.95;10.20;;;37.40;44.50;;;;;;5052604;28;20021;-81
2021/08/18 09:48:16;;;;;;;14.88;8.38;;;37.30;44.80;;;;;;5052846;28;20083;-80
2021/08/18 09:50:47;;;;;;;20.70;8.93;;;37.30;44.80;;;;;;5052502;28;20021;-80
2021/08/18 09:53:16;;;;;;;14.63;9.40;;;37.30;44.80;;;;;;5052494;28;20033;-81
2021/08/18 09:56:12;;;;;;;19.13;9.80;;;37.30;44.70;;;;;;5052216;28;20430;-80
2021/08/18 09:58:40;;;;;;;11.38;8.48;;;37.20;44.70;;;;;;5049080;28;20489;-80
2021/08/18 10:01:10;;;;;;;25.38;10.82;;;37.30;44.90;;;;;;5052299;28;20036;-81
2021/08/18 10:03:36;;;;;;;20.90;10.00;;;37.30;44.80;;;;;;5052516;28;20034;-80
2021/08/18 10:06:03;;;;;;;14.18;8.52;;;37.30;44.70;;;;;;5051504;28;20860;-84
2021/08/18 10:08:29;;;;;;;14.30;8.60;;;37.30;44.60;;;;;;5052661;28;20029;-82
2021/08/18 10:10:55;;;;;;;11.25;9.38;;;37.40;44.80;;;;;;5052358;28;20052;-81
2021/08/18 10:13:22;;;;;;;13.93;8.50;;;37.40;44.40;;;;;;5052974;28;20044;-81
2021/08/18 10:15:49;;;;;;;10.57;8.40;;;37.50;44.30;;;;;;5051863;28;20094;-79
2021/08/18 10:18:58;;;;;;;17.65;8.80;;;37.50;44.30;;;;;;5051939;28;20375;-80
2021/08/18 10:21:26;;;;;;;16.77;9.82;;;37.60;44.30;;;;;;5047346;28;20044;-80
2021/08/18 10:23:59;;;;;;;16.92;10.07;;;37.60;44.50;;;;;;5052291;28;20021;-81
2021/08/18 10:26:34;;;;;;;15.15;9.43;;;37.60;44.50;;;;;;5051555;28;20013;-80
2021/08/18 10:29:01;;;;;;;12.65;8.55;;;37.60;44.20;;;;;;5051297;28;20379;-77
2021/08/18 10:31:43;;;;;;;13.02;8.70;;;37.50;44.30;;;;;;5051274;28;20021;-78
2021/08/18 10:34:45;;;;;;;15.70;9.60;;;37.40;44.20;;;;;;5051601;28;20098;-78
2021/08/18 10:37:21;;;;;;;13.93;9.15;;;37.30;44.80;;;;;;5053543;28;20025;-79
2021/08/18 10:39:52;;;;;;;17.45;9.60;;;37.10;44.50;;;;;;5051964;28;20039;-78
2021/08/18 10:42:31;;;;;;;;;;;37.00;44.80;;;;;;5051348;28;20013;-77
2021/08/18 10:44:57;;;;;;;18.60;8.98;;;37.00;44.80;;;;;;5047957;28;19909;-77
2021/08/18 10:47:25;;;;;;;13.45;9.60;;;36.90;44.90;;;;;;5050426;28;20082;-77
2021/08/18 10:49:53;;;;;;;17.25;10.43;;;36.80;45.00;;;;;;5050978;28;20024;-75
2021/08/18 10:52:27;;;;;;;12.60;9.52;;;36.70;45.20;;;;;;5050369;28;20028;-78
2021/08/18 10:55:05;;;;;;;16.05;9.68;;;36.50;45.30;;;;;;5051242;28;20025;-75
2021/08/18 10:57:45;;;;;;;16.90;9.25;;;36.40;45.50;;;;;;5050796;28;20060;-75
2021/08/18 11:00:20;;;;;;;11.93;8.82;;;36.30;45.80;;;;;;5049728;28;20033;-76
2021/08/18 11:02:54;;;;;;;18.38;9.32;;;36.20;45.70;;;;;;5051332;28;20052;-79
2021/08/18 11:05:23;;;;;;;12.35;9.00;;;36.10;45.90;;;;;;5051293;28;20053;-79
2021/08/18 11:08:16;;;;;;;10.40;8.55;;;36.00;46.10;;;;;;5051240;28;20427;-78
2021/08/18 11:10:51;;;;;;;15.43;9.38;;;35.90;46.30;;;;;;5051069;28;20115;-78
2021/08/18 11:13:33;;;;;;;23.00;9.07;;;35.90;46.60;;;;;;5049776;28;20070;-78
2021/08/18 11:16:04;;;;;;;13.60;9.27;;;35.80;46.50;;;;;;5050423;28;20108;-78
2021/08/18 11:18:30;;;;;;;;;;;35.80;46.70;;;;;;5051811;28;20467;-78
2021/08/18 11:20:56;;;;;;;15.63;8.90;;;35.70;46.70;;;;;;5051432;28;19913;-78
2021/08/18 11:23:24;;;;;;;14.48;9.05;;;35.70;46.80;;;;;;5051333;28;20083;-79
2021/08/18 11:25:50;;;;;;;14.40;9.02;;;35.70;46.80;;;;;;5051596;28;20056;-78
2021/08/18 11:28:21;;;;;;;18.02;9.35;;;35.70;46.90;;;;;;5051266;28;20072;-79
2021/08/18 11:30:56;;;;;;;21.20;7.55;;;35.60;47.30;;;;;;5051138;28;20479;-78
2021/08/18 11:33:22;;;;;;;19.15;7.57;;;35.60;47.60;;;;;;5051132;28;20029;-78
2021/08/18 11:35:48;;;;;;;17.63;8.00;;;35.60;48.00;;;;;;5051126;28;20106;-77
2021/08/18 11:38:13;;;;;;;26.65;8.45;;;35.60;48.20;;;;;;5051218;28;20071;-78
2021/08/18 11:40:40;;;;;;;29.42;8.57;;;35.50;48.30;;;;;;5051173;28;20029;-78
2021/08/18 11:43:06;;;;;;;14.02;8.70;;;35.40;48.30;;;;;;5051050;28;20025;-78
2021/08/18 11:45:35;;;;;;;21.40;8.23;;;35.40;48.50;;;;;;5050899;28;20025;-78
2021/08/18 11:48:11;;;;;;;14.02;7.93;;;35.40;48.60;;;;;;5050931;28;20387;-78
2021/08/18 11:50:38;;;;;;;16.83;8.52;;;35.30;48.40;;;;;;5050927;28;20087;-79
2021/08/18 11:53:06;;;;;;;16.05;8.38;;;35.30;48.40;;;;;;5050956;28;20109;-80
2021/08/18 11:55:34;;;;;;;14.25;8.20;;;35.20;48.30;;;;;;5050959;28;20456;-79
2021/08/18 11:58:08;;;;;;;12.98;8.13;;;35.20;48.30;;;;;;5050731;28;20411;-80
2021/08/18 12:00:44;;;;;;;14.65;8.40;;;35.10;49.10;;;;;;5050885;28;20562;-79
2021/08/18 12:03:10;;;;;;;11.95;7.85;;;35.00;48.50;;;;;;5050558;28;20094;-80
2021/08/18 12:05:39;;;;;;;16.08;8.18;;;34.90;48.80;;;;;;5050357;28;20037;-79
2021/08/18 12:08:11;;;;;;;15.93;9.50;;;34.70;49.00;;;;;;5050742;28;20356;-80
2021/08/18 12:10:39;;;;;;;13.23;9.20;;;34.60;49.40;;;;;;5049706;28;20100;-80
2021/08/18 12:13:17;;;;;;;26.13;12.55;;;34.50;49.70;;;;;;5049788;28;20807;-80
2021/08/18 12:15:46;;;;;;;21.38;9.23;;;34.40;49.80;;;;;;5048026;28;20186;-79
2021/08/18 12:18:30;;;;;;;17.80;11.80;;;34.30;50.00;;;;;;5049738;28;20033;-78
2021/08/18 12:21:19;;;;;;;20.90;10.38;;;34.20;50.30;;;;;;5049624;28;20033;-77
2021/08/18 12:23:46;;;;;;;17.95;10.70;;;34.20;50.40;;;;;;5051129;28;20025;-77
2021/08/18 12:26:31;;;;;;;16.20;10.23;;;34.10;50.50;;;;;;5047302;28;20020;-79
2021/08/18 12:28:59;;;;;;;16.10;9.95;;;34.00;50.60;;;;;;5032584;28;20476;-78
2021/08/18 12:31:26;;;;;;;20.25;10.88;;;33.90;50.80;;;;;;5034395;28;20044;-78
2021/08/18 12:34:31;;;;;;;17.40;10.35;;;33.80;51.40;;;;;;5049244;28;20043;-78
2021/08/18 12:37:01;;;;;;;19.65;10.63;;;33.70;50.80;;;;;;5043119;28;20470;-77